Bookmark and Share
Track history (hours):
 

Christian & Alexa

More information available from US FCC via Universal Licensing System and Coast Guard Vessel Documentation Center.

Last reported at 2013-Oct-17 04:32 UTC. Time now 2014-Apr-18 03:00 UTC.
Position N 40°09' W 073°35'.
Warning: this ship's position is months out of date.

Length 30 m.

Type: Fishing. MMSI: 366939620.

NotesDate/timePositionNaut miles runAvg speedWind from/ knotsBaromVisibWave heightAir tempDewpointWater temp
2013-Oct-17 04:32N 40°09' W 073°35'1010.2
2013-Oct-17 03:32N 40°08' W 073°48'1010.1
2013-Oct-17 02:33N 40°06' W 074°01'5 4.7
2013-Oct-17 01:28N 40°07' W 073°54'1410.0
2013-Oct-17 00:05N 40°09' W 073°36'710.0
2013-Oct-16 23:20N 40°09' W 073°26'1 0.2
2013-Oct-16 15:07N 40°09' W 073°25'29 1.1
2013-Oct-15 12:06N 40°06' W 074°02'0 0.0
2013-Oct-15 05:06N 40°06' W 074°02'  
2013-Oct-11 09:27N 40°20' W 073°30'2010.6
2013-Oct-11 07:32N 40°30' W 073°06'1010.6
2013-Oct-11 06:33N 40°35' W 072°54'1110.5
2013-Oct-11 05:34N 40°40' W 072°42'1110.8
2013-Oct-11 04:33N 40°45' W 072°29'1110.9
2013-Oct-11 03:33N 40°50' W 072°17'1111.1
2013-Oct-11 02:33N 40°55' W 072°04'1110.9
2013-Oct-11 01:33N 41°01' W 071°51'1110.9
2013-Oct-11 00:33N 41°05' W 071°38'1110.8
2013-Oct-10 23:33N 41°11' W 071°26'1110.6
2013-Oct-10 22:32N 41°18' W 071°15'1110.7
2013-Oct-10 21:33N 41°24' W 071°04'1110.9
2013-Oct-10 20:33N 41°31' W 070°53'7 0.9
2013-Oct-10 13:12N 41°38' W 070°55'  

Dump ship's entire track history

sailing weather and tide predictions

Christian & Alexa — WAA4721 — position and weather